Time;durP1;ratioP1;P1;durP2;ratioP2;P2;SDS_P1;SDS_P2;PMS_P1;PMS_P2;Temp;Humidity;BMP_temperature;BMP_pressure;BME280_temperature;BME280_humidity;BME280_pressure;Samples;Min_cycle;Max_cycle;Signal;HPM_P1;HPM_P2
2023/06/09 00:01:22;;;;;;;5.40;5.10;;;19.80;53.90;;;;;;6268498;28;20243;-82
2023/06/09 00:04:26;;;;;;;8.83;6.63;;;19.80;53.70;;;;;;6260826;28;20411;-81
2023/06/09 00:07:29;;;;;;;6.03;5.57;;;19.70;53.90;;;;;;6286881;28;20853;-83
2023/06/09 00:10:33;;;;;;;6.37;5.83;;;19.70;53.70;;;;;;6273215;28;20245;-81
2023/06/09 00:13:37;;;;;;;6.23;5.73;;;19.70;53.70;;;;;;6264807;28;20905;-82
2023/06/09 00:16:46;;;;;;;5.80;5.40;;;19.60;53.60;;;;;;6283584;28;20689;-82
2023/06/09 00:19:52;;;;;;;5.53;5.23;;;19.50;53.60;;;;;;6282215;28;20240;-81
2023/06/09 00:22:58;;;;;;;6.23;5.83;;;19.50;53.60;;;;;;6257186;28;20411;-81
2023/06/09 00:26:02;;;;;;;6.03;5.63;;;19.50;53.60;;;;;;6275221;28;20931;-81
2023/06/09 00:29:06;;;;;;;6.80;5.87;;;19.50;53.60;;;;;;6265781;28;20284;-82
2023/06/09 00:32:11;;;;;;;6.20;5.70;;;19.50;53.70;;;;;;6265602;28;20277;-79
2023/06/09 00:35:15;;;;;;;5.83;5.33;;;19.50;53.70;;;;;;6279152;28;20228;-83
2023/06/09 00:38:21;;;;;;;5.83;5.53;;;19.40;53.70;;;;;;6266493;28;20318;-83
2023/06/09 00:41:24;;;;;;;5.93;5.53;;;19.40;53.80;;;;;;6284923;28;20264;-83
2023/06/09 00:44:28;;;;;;;6.17;5.40;;;19.30;53.90;;;;;;6277919;28;20800;-83
2023/06/09 00:47:32;;;;;;;5.63;5.33;;;19.20;53.90;;;;;;6270294;28;20253;-81
2023/06/09 00:50:35;;;;;;;5.60;5.30;;;19.20;54.00;;;;;;6283566;28;20244;-80
2023/06/09 00:53:42;;;;;;;5.67;5.27;;;19.10;54.00;;;;;;6274986;28;20261;-83
2023/06/09 00:56:45;;;;;;;6.30;5.90;;;19.10;54.00;;;;;;6280015;28;20225;-81
2023/06/09 00:59:50;;;;;;;5.47;5.27;;;19.00;54.10;;;;;;6282572;28;20357;-82
2023/06/09 01:02:54;;;;;;;5.70;5.40;;;18.90;54.30;;;;;;6265514;28;20708;-77
2023/06/09 01:06:08;;;;;;;6.13;5.83;;;18.80;54.40;;;;;;6272624;28;20722;-83
2023/06/09 01:09:19;;;;;;;9.97;6.40;;;18.80;54.70;;;;;;6281355;28;20725;-81
2023/06/09 01:12:40;;;;;;;6.03;5.63;;;18.70;54.90;;;;;;6281096;28;20733;-80
2023/06/09 01:15:49;;;;;;;6.50;6.00;;;18.70;55.10;;;;;;6285791;28;20226;-81
2023/06/09 01:18:53;;;;;;;6.87;6.37;;;18.60;55.30;;;;;;6280669;28;20389;-80
2023/06/09 01:22:00;;;;;;;7.80;7.00;;;18.60;55.40;;;;;;6256865;28;20242;-82
2023/06/09 01:25:25;;;;;;;8.03;7.40;;;18.50;55.70;;;;;;6281422;28;20291;-84
2023/06/09 01:28:33;;;;;;;9.23;8.33;;;18.50;56.10;;;;;;6274502;28;20318;-81
2023/06/09 01:31:37;;;;;;;8.43;7.77;;;18.40;56.60;;;;;;6275983;28;20746;-82
2023/06/09 01:34:41;;;;;;;7.47;6.97;;;18.40;56.80;;;;;;6276225;28;20741;-82
2023/06/09 01:37:45;;;;;;;8.17;7.43;;;18.40;56.80;;;;;;6266885;28;20368;-81
2023/06/09 01:40:50;;;;;;;8.73;7.93;;;18.40;56.90;;;;;;6287696;28;20237;-82
2023/06/09 01:43:53;;;;;;;7.93;7.27;;;18.30;57.70;;;;;;6275330;28;20285;-82
2023/06/09 01:46:57;;;;;;;8.00;7.50;;;18.30;58.20;;;;;;6261767;28;20320;-79
2023/06/09 01:50:04;;;;;;;9.07;7.90;;;18.30;58.60;;;;;;6272428;28;20240;-81
2023/06/09 01:53:13;;;;;;;8.70;8.00;;;18.20;58.80;;;;;;6258446;28;20312;-82
2023/06/09 01:56:23;;;;;;;9.87;9.03;;;18.20;59.20;;;;;;6276293;28;20739;-80
2023/06/09 01:59:31;;;;;;;9.43;8.63;;;18.20;59.30;;;;;;6280355;28;20741;-81
2023/06/09 02:02:35;;;;;;;9.47;8.70;;;18.20;59.80;;;;;;6275549;28;20248;-79
2023/06/09 02:05:42;;;;;;;12.80;9.03;;;18.10;59.90;;;;;;6280106;28;20230;-82
2023/06/09 02:08:45;;;;;;;8.63;8.07;;;18.10;60.00;;;;;;6274903;28;20238;-81
2023/06/09 02:11:53;;;;;;;9.77;8.87;;;18.10;60.00;;;;;;6274858;28;20706;-84
2023/06/09 02:14:56;;;;;;;8.83;8.03;;;18.00;60.30;;;;;;6266910;28;20241;-81
2023/06/09 02:18:01;;;;;;;11.40;9.33;;;18.00;60.40;;;;;;6272625;28;20806;-82
2023/06/09 02:21:05;;;;;;;9.63;8.40;;;18.00;60.50;;;;;;6261228;28;20395;-81
2023/06/09 02:24:08;;;;;;;10.07;8.93;;;17.90;60.50;;;;;;6271029;28;20234;-82
2023/06/09 02:27:13;;;;;;;9.57;8.87;;;18.00;60.70;;;;;;6271968;28;20237;-83
2023/06/09 02:30:16;;;;;;;9.43;8.73;;;17.90;60.60;;;;;;6265851;28;20237;-81
2023/06/09 02:33:24;;;;;;;8.93;8.20;;;17.80;60.50;;;;;;6266061;28;20326;-79
2023/06/09 02:36:27;;;;;;;9.27;8.47;;;17.80;60.50;;;;;;6270464;28;20908;-79
2023/06/09 02:39:31;;;;;;;9.20;8.40;;;17.80;60.50;;;;;;6271691;28;20254;-81
2023/06/09 02:42:36;;;;;;;8.47;7.73;;;17.70;60.80;;;;;;6286782;28;20233;-79
2023/06/09 02:45:39;;;;;;;9.97;8.97;;;17.60;60.80;;;;;;6256711;28;20292;-81
2023/06/09 02:48:42;;;;;;;11.43;8.63;;;17.60;60.90;;;;;;6270215;28;20225;-80
2023/06/09 02:51:46;;;;;;;8.80;8.10;;;17.60;60.90;;;;;;6264528;28;20276;-81
2023/06/09 02:54:49;;;;;;;8.93;8.23;;;17.60;60.80;;;;;;6277468;28;20800;-79
2023/06/09 02:57:53;;;;;;;9.37;8.63;;;17.50;60.70;;;;;;6280011;28;20232;-79
2023/06/09 03:00:56;;;;;;;9.40;8.63;;;17.50;60.70;;;;;;6292542;28;20856;-81
2023/06/09 03:03:59;;;;;;;8.23;7.53;;;17.50;60.70;;;;;;6279242;28;20312;-81
2023/06/09 03:07:02;;;;;;;11.40;8.53;;;17.50;60.70;;;;;;6269009;28;20233;-80
2023/06/09 03:10:06;;;;;;;9.00;8.30;;;17.50;60.90;;;;;;6268817;28;20254;-79
2023/06/09 03:13:11;;;;;;;8.93;8.13;;;17.50;61.00;;;;;;6265144;28;20639;-81
2023/06/09 03:16:14;;;;;;;9.57;8.73;;;17.50;60.80;;;;;;6302489;28;20716;-79
2023/06/09 03:19:17;;;;;;;9.13;8.43;;;17.50;60.80;;;;;;6270667;28;20301;-81
2023/06/09 03:22:22;;;;;;;9.13;8.33;;;17.50;60.70;;;;;;6279638;28;20246;-80
2023/06/09 03:25:25;;;;;;;8.97;8.17;;;17.50;60.60;;;;;;6281113;28;20329;-82
2023/06/09 03:28:30;;;;;;;9.07;8.33;;;17.50;60.70;;;;;;6259993;28;20226;-82
2023/06/09 03:31:33;;;;;;;10.20;9.03;;;17.50;60.70;;;;;;6260803;28;20250;-83
2023/06/09 03:34:36;;;;;;;9.00;8.30;;;17.50;60.80;;;;;;6263929;28;20300;-81
2023/06/09 03:37:39;;;;;;;9.37;8.47;;;17.40;60.80;;;;;;6290078;28;20331;-81
2023/06/09 03:40:42;;;;;;;9.17;8.37;;;17.40;60.90;;;;;;6266178;28;20253;-82
2023/06/09 03:43:48;;;;;;;8.93;8.03;;;17.40;60.70;;;;;;6280241;28;21636;-80
2023/06/09 03:46:51;;;;;;;9.43;8.43;;;17.40;60.70;;;;;;6276544;28;20242;-81
2023/06/09 03:49:55;;;;;;;9.80;9.00;;;17.50;60.50;;;;;;6278805;28;20742;-81
2023/06/09 03:52:58;;;;;;;10.63;8.57;;;17.50;60.50;;;;;;6280067;28;20238;-81
2023/06/09 03:56:01;;;;;;;8.73;8.07;;;17.50;60.60;;;;;;6276593;28;20775;-82
2023/06/09 03:59:05;;;;;;;9.77;8.93;;;17.50;60.70;;;;;;6270251;28;20283;-80
2023/06/09 04:02:08;;;;;;;10.43;8.37;;;17.50;60.80;;;;;;6272908;28;20237;-81
2023/06/09 04:05:11;;;;;;;9.07;8.10;;;17.50;60.70;;;;;;6273598;28;20760;-78
2023/06/09 04:08:15;;;;;;;9.43;8.67;;;17.50;60.70;;;;;;6278293;28;20755;-79
2023/06/09 04:11:18;;;;;;;9.70;8.83;;;17.50;60.50;;;;;;6272282;28;20245;-78
2023/06/09 04:14:22;;;;;;;9.17;8.37;;;17.50;60.50;;;;;;6267406;28;20242;-79
2023/06/09 04:17:25;;;;;;;9.77;8.87;;;17.50;60.60;;;;;;6269834;28;20246;-78
2023/06/09 04:20:29;;;;;;;8.60;7.90;;;17.50;60.80;;;;;;6266230;28;20244;-82
2023/06/09 04:23:32;;;;;;;9.63;8.77;;;17.50;60.60;;;;;;6280507;28;20327;-80
2023/06/09 04:26:39;;;;;;;9.43;8.53;;;17.50;60.30;;;;;;6277895;28;20244;-81
2023/06/09 04:29:44;;;;;;;9.70;8.73;;;17.50;60.30;;;;;;6264674;28;20245;-78
2023/06/09 04:32:50;;;;;;;9.57;8.67;;;17.50;60.10;;;;;;6266634;28;20411;-80
2023/06/09 04:35:54;;;;;;;11.43;8.30;;;17.60;59.80;;;;;;6275620;28;20241;-81
2023/06/09 04:38:58;;;;;;;8.57;7.97;;;17.50;59.40;;;;;;6260665;28;20234;-80
2023/06/09 04:42:04;;;;;;;9.20;8.30;;;17.60;59.10;;;;;;6286314;28;20401;-78
2023/06/09 04:45:10;;;;;;;8.10;7.50;;;17.60;58.70;;;;;;6265719;28;20238;-82
2023/06/09 04:48:13;;;;;;;7.23;6.63;;;17.80;58.10;;;;;;6267901;28;20313;-80
2023/06/09 04:51:17;;;;;;;8.03;7.20;;;17.80;58.00;;;;;;6256654;28;20325;-79
2023/06/09 04:54:22;;;;;;;7.97;7.00;;;18.00;57.20;;;;;;6281548;28;20237;-80
2023/06/09 04:57:28;;;;;;;8.40;7.67;;;18.10;56.50;;;;;;6271703;28;20752;-79
2023/06/09 05:00:33;;;;;;;7.60;6.90;;;18.30;55.80;;;;;;6273810;28;20237;-78
2023/06/09 05:03:36;;;;;;;7.33;6.57;;;18.50;55.40;;;;;;6270388;28;20304;-78
2023/06/09 05:06:39;;;;;;;7.40;6.90;;;18.70;55.20;;;;;;6278122;28;20233;-79
2023/06/09 05:09:42;;;;;;;7.63;6.93;;;19.00;54.20;;;;;;6271122;28;20286;-80
2023/06/09 05:12:46;;;;;;;6.53;6.07;;;19.30;53.70;;;;;;6274985;28;20246;-77
2023/06/09 05:15:50;;;;;;;8.77;6.40;;;19.70;52.80;;;;;;6270480;28;20241;-74
2023/06/09 05:18:53;;;;;;;6.80;6.13;;;20.00;51.40;;;;;;6272423;28;20252;-75
2023/06/09 05:21:57;;;;;;;6.80;6.10;;;20.20;50.90;;;;;;6259155;28;20959;-78
2023/06/09 05:25:00;;;;;;;6.57;5.93;;;20.50;50.80;;;;;;6261234;28;20347;-77
2023/06/09 05:28:03;;;;;;;8.37;6.03;;;20.70;50.30;;;;;;6270879;28;20240;-80
2023/06/09 05:31:08;;;;;;;11.97;6.37;;;21.10;49.60;;;;;;6260009;28;20264;-81
2023/06/09 05:34:12;;;;;;;7.33;5.47;;;21.30;48.70;;;;;;6251382;28;20234;-79
2023/06/09 05:37:16;;;;;;;6.70;5.40;;;21.50;47.90;;;;;;6272098;28;20232;-80
2023/06/09 05:40:19;;;;;;;5.73;5.33;;;21.90;48.10;;;;;;6264131;28;20299;-80
2023/06/09 05:43:26;;;;;;;6.57;5.77;;;22.00;47.60;;;;;;6274497;28;20253;-79
2023/06/09 05:46:31;;;;;;;5.73;5.23;;;22.00;46.90;;;;;;6274083;28;20242;-78
2023/06/09 05:49:35;;;;;;;6.07;5.57;;;21.70;46.80;;;;;;6275825;28;20256;-80
2023/06/09 05:52:38;;;;;;;9.30;5.43;;;21.80;46.20;;;;;;6274601;28;20248;-82
2023/06/09 05:55:41;;;;;;;5.37;4.97;;;22.00;46.10;;;;;;6277887;28;20241;-81
2023/06/09 05:58:44;;;;;;;6.17;5.60;;;22.00;46.00;;;;;;6269412;28;20237;-79
2023/06/09 06:01:49;;;;;;;6.33;5.73;;;21.90;45.70;;;;;;6266429;28;20245;-79
2023/06/09 06:04:52;;;;;;;6.77;5.30;;;21.70;45.80;;;;;;6273863;28;20238;-82
2023/06/09 06:07:55;;;;;;;5.37;4.83;;;21.90;45.70;;;;;;6260161;28;20325;-79
2023/06/09 06:10:58;;;;;;;5.90;5.37;;;22.10;44.80;;;;;;6263204;28;20713;-80
2023/06/09 06:14:01;;;;;;;5.80;5.27;;;22.50;45.50;;;;;;6276284;28;20759;-81
2023/06/09 06:17:06;;;;;;;11.97;5.40;;;22.90;44.90;;;;;;6279724;28;20292;-79
2023/06/09 06:20:11;;;;;;;5.33;5.00;;;23.50;44.50;;;;;;6268069;28;20244;-80
2023/06/09 06:23:15;;;;;;;5.00;4.70;;;24.00;43.10;;;;;;6263141;28;20265;-80
2023/06/09 06:26:18;;;;;;;7.67;5.23;;;24.20;42.20;;;;;;6275658;28;20843;-80
2023/06/09 06:29:22;;;;;;;5.63;4.77;;;24.40;42.20;;;;;;6271297;28;20316;-79
2023/06/09 06:32:27;;;;;;;5.13;4.63;;;24.50;42.10;;;;;;6273245;28;20244;-81
2023/06/09 06:35:30;;;;;;;5.80;5.30;;;24.80;42.20;;;;;;6272002;28;20245;-79
2023/06/09 06:38:35;;;;;;;5.40;4.90;;;25.00;41.60;;;;;;6276242;28;20253;-78
2023/06/09 06:41:38;;;;;;;6.13;5.53;;;25.20;40.80;;;;;;6286502;28;20257;-79
2023/06/09 06:44:42;;;;;;;6.10;5.03;;;25.30;40.70;;;;;;6274513;28;20261;-78
2023/06/09 06:47:49;;;;;;;7.63;5.17;;;25.40;40.10;;;;;;6279405;28;20831;-78
2023/06/09 06:50:52;;;;;;;5.37;4.97;;;25.80;40.00;;;;;;6263069;28;20257;-82
2023/06/09 06:53:55;;;;;;;5.07;4.80;;;26.10;39.50;;;;;;6281014;28;20412;-79
2023/06/09 06:57:00;;;;;;;8.37;5.50;;;26.30;39.50;;;;;;6273658;28;20237;-80
2023/06/09 07:00:09;;;;;;;5.77;5.33;;;26.40;39.50;;;;;;6273261;28;20482;-81
2023/06/09 07:03:16;;;;;;;5.60;5.10;;;26.40;39.90;;;;;;6273421;28;20737;-79
2023/06/09 07:06:20;;;;;;;5.50;5.20;;;26.40;40.00;;;;;;6271055;28;20765;-80
2023/06/09 07:09:24;;;;;;;5.40;5.00;;;26.60;39.60;;;;;;6278823;28;20316;-80
2023/06/09 07:12:27;;;;;;;5.70;5.23;;;26.60;38.90;;;;;;6279799;28;20621;-82
2023/06/09 07:15:30;;;;;;;11.10;5.53;;;26.40;38.20;;;;;;6282656;28;20234;-81
2023/06/09 07:18:36;;;;;;;5.03;4.57;;;26.10;38.80;;;;;;6281952;28;20248;-81
2023/06/09 07:21:39;;;;;;;5.23;4.47;;;26.20;38.70;;;;;;6268838;28;20298;-80
2023/06/09 07:24:42;;;;;;;7.37;4.63;;;26.40;38.90;;;;;;6278986;28;20256;-78
2023/06/09 07:27:46;;;;;;;6.63;4.50;;;26.40;37.90;;;;;;6279544;28;20245;-80
2023/06/09 07:30:49;;;;;;;5.13;4.23;;;26.40;38.30;;;;;;6271845;28;20320;-81
2023/06/09 07:33:54;;;;;;;5.00;4.60;;;26.50;38.40;;;;;;6273417;28;20367;-79
2023/06/09 07:36:59;;;;;;;8.07;4.53;;;26.60;40.20;;;;;;6274937;28;20242;-79
2023/06/09 07:40:03;;;;;;;5.03;4.47;;;26.50;38.90;;;;;;6304083;28;20697;-81
2023/06/09 07:43:23;;;;;;;5.43;4.40;;;26.40;38.90;;;;;;6280411;28;20248;-81
2023/06/09 07:46:26;;;;;;;4.70;4.40;;;26.40;38.50;;;;;;6282761;28;20755;-80
2023/06/09 07:49:30;;;;;;;4.00;3.73;;;26.00;38.90;;;;;;6283448;28;20261;-80
2023/06/09 07:52:33;;;;;;;4.30;4.10;;;26.00;39.80;;;;;;6271313;28;20742;-80
2023/06/09 07:55:37;;;;;;;5.53;4.53;;;25.80;40.20;;;;;;6280493;28;20234;-78
2023/06/09 07:58:41;;;;;;;4.97;4.50;;;25.60;40.60;;;;;;6287597;28;20732;-80
2023/06/09 08:01:44;;;;;;;6.67;4.67;;;25.50;40.50;;;;;;6286655;28;20241;-80
2023/06/09 08:04:49;;;;;;;5.37;4.80;;;25.60;40.70;;;;;;6267015;28;20256;-81
2023/06/09 08:07:52;;;;;;;4.90;4.60;;;25.60;40.80;;;;;;6267521;28;20722;-81
2023/06/09 08:10:55;;;;;;;5.20;4.77;;;25.60;41.40;;;;;;6273177;28;20248;-80
2023/06/09 08:14:03;;;;;;;6.33;4.30;;;25.60;41.20;;;;;;6272550;28;20233;-81
2023/06/09 08:17:06;;;;;;;4.63;4.30;;;25.60;41.30;;;;;;6292417;28;20308;-79
2023/06/09 08:20:11;;;;;;;4.33;4.13;;;25.60;40.60;;;;;;6279955;28;20715;-79
2023/06/09 08:23:16;;;;;;;5.67;4.73;;;25.60;41.10;;;;;;6267430;28;20234;-80
2023/06/09 08:26:19;;;;;;;5.27;4.83;;;25.80;41.10;;;;;;6287215;28;20260;-78
2023/06/09 08:29:22;;;;;;;8.77;5.03;;;25.80;41.40;;;;;;6280021;28;20791;-81
2023/06/09 08:32:25;;;;;;;4.97;4.53;;;25.70;40.60;;;;;;6286754;28;20245;-80
2023/06/09 08:35:32;;;;;;;4.90;4.33;;;25.60;40.80;;;;;;6275151;28;20233;-80
2023/06/09 08:38:36;;;;;;;5.43;5.00;;;25.70;41.50;;;;;;6267450;28;20248;-80
2023/06/09 08:41:40;;;;;;;5.03;4.73;;;25.80;41.70;;;;;;6266099;28;20329;-80
2023/06/09 08:44:48;;;;;;;5.00;4.70;;;25.90;41.50;;;;;;6263130;28;20834;-80
2023/06/09 08:47:55;;;;;;;5.37;4.63;;;26.00;41.40;;;;;;6276970;28;20237;-80
2023/06/09 08:51:00;;;;;;;10.73;4.60;;;26.20;41.30;;;;;;6273655;28;20245;-81
2023/06/09 08:54:04;;;;;;;5.60;4.27;;;26.20;40.70;;;;;;6287040;28;20228;-80
2023/06/09 08:57:09;;;;;;;6.03;4.63;;;26.30;41.20;;;;;;6267514;28;20234;-82
2023/06/09 09:00:13;;;;;;;5.50;4.60;;;26.50;41.90;;;;;;6277419;28;20724;-79
2023/06/09 09:03:16;;;;;;;6.13;5.20;;;26.90;40.90;;;;;;6285909;28;20237;-78
2023/06/09 09:06:21;;;;;;;5.07;4.60;;;27.20;40.40;;;;;;6282847;28;20249;-79
2023/06/09 09:09:24;;;;;;;6.27;5.00;;;27.30;40.40;;;;;;6275138;28;20310;-79
2023/06/09 09:12:46;;;;;;;4.80;4.50;;;27.40;40.50;;;;;;6269538;28;20245;-81
2023/06/09 09:15:50;;;;;;;5.80;4.70;;;27.60;39.80;;;;;;6284656;28;20229;-82
2023/06/09 09:18:55;;;;;;;5.50;5.00;;;28.00;40.40;;;;;;6270872;28;20279;-78
2023/06/09 09:22:06;;;;;;;5.87;5.43;;;28.10;39.30;;;;;;6280040;28;20242;-79
2023/06/09 09:25:10;;;;;;;5.70;5.00;;;28.10;39.10;;;;;;6280616;28;20233;-80
2023/06/09 09:28:13;;;;;;;6.27;5.77;;;28.00;39.70;;;;;;6282930;28;20225;-79
2023/06/09 09:31:16;;;;;;;9.50;5.60;;;28.10;40.20;;;;;;6287879;28;20240;-82
2023/06/09 09:34:20;;;;;;;9.27;6.73;;;28.30;40.60;;;;;;6282744;28;20242;-79
2023/06/09 09:37:26;;;;;;;5.30;5.00;;;28.50;40.90;;;;;;6281236;28;20246;-79
2023/06/09 09:40:29;;;;;;;7.30;5.90;;;28.60;40.10;;;;;;6279569;28;20729;-81
2023/06/09 09:43:32;;;;;;;6.77;6.10;;;28.50;39.90;;;;;;6265768;28;20261;-80
2023/06/09 09:46:40;;;;;;;6.37;5.77;;;28.00;40.40;;;;;;6266328;28;20303;-78
2023/06/09 09:49:51;;;;;;;7.37;5.43;;;27.60;40.40;;;;;;6274598;28;20317;-80
2023/06/09 09:52:56;;;;;;;10.50;6.63;;;27.60;41.20;;;;;;6275962;28;20249;-79
2023/06/09 09:56:01;;;;;;;8.93;5.63;;;27.50;41.20;;;;;;6264694;28;20241;-80
2023/06/09 09:59:06;;;;;;;6.67;6.00;;;27.40;41.50;;;;;;6273753;28;20609;-79
2023/06/09 10:02:15;;;;;;;6.13;5.63;;;27.40;42.10;;;;;;6277687;28;20314;-77
2023/06/09 10:05:21;;;;;;;6.07;5.57;;;27.30;42.00;;;;;;6263425;28;20603;-79
2023/06/09 10:08:29;;;;;;;6.03;5.47;;;27.30;41.70;;;;;;6275345;28;20246;-80
2023/06/09 10:11:32;;;;;;;5.97;5.27;;;27.40;42.50;;;;;;6269725;28;20241;-79
2023/06/09 10:14:35;;;;;;;5.73;5.33;;;27.50;42.40;;;;;;6276874;28;20253;-80
2023/06/09 10:17:40;;;;;;;7.47;5.17;;;27.90;40.80;;;;;;6272124;28;20238;-80
2023/06/09 10:20:44;;;;;;;6.20;5.73;;;27.80;40.90;;;;;;6279325;28;20233;-80
2023/06/09 10:23:49;;;;;;;5.43;5.00;;;27.80;40.40;;;;;;6275328;28;20336;-79
2023/06/09 10:26:53;;;;;;;5.57;5.07;;;27.70;40.10;;;;;;6267210;28;20241;-80
2023/06/09 10:29:57;;;;;;;5.43;5.10;;;27.80;40.70;;;;;;6279098;28;20868;-79
2023/06/09 10:33:09;;;;;;;5.03;4.63;;;27.90;40.60;;;;;;6284866;28;20233;-80
2023/06/09 10:36:12;;;;;;;5.70;4.73;;;28.00;39.60;;;;;;6268788;28;20229;-79
2023/06/09 10:39:18;;;;;;;5.50;5.00;;;28.10;39.60;;;;;;6265527;28;20245;-81
2023/06/09 10:42:33;;;;;;;4.83;4.43;;;28.30;39.00;;;;;;6274730;28;20273;-83
2023/06/09 10:45:51;;;;;;;6.57;5.40;;;28.50;38.70;;;;;;6268814;28;20262;-80
2023/06/09 10:48:54;;;;;;;7.40;5.37;;;28.50;38.70;;;;;;6273927;28;20249;-80
2023/06/09 10:51:57;;;;;;;5.40;4.80;;;28.50;39.00;;;;;;6276415;28;20236;-80
2023/06/09 10:55:15;;;;;;;5.07;4.77;;;28.70;38.60;;;;;;6268043;28;20291;-80
2023/06/09 10:58:36;;;;;;;5.43;4.80;;;28.70;38.30;;;;;;6286142;28;20324;-80
2023/06/09 11:02:12;;;;;;;8.60;5.37;;;28.60;38.20;;;;;;6266395;28;20381;-79
2023/06/09 11:05:17;;;;;;;5.10;4.70;;;28.50;38.40;;;;;;6274217;28;20235;-81
2023/06/09 11:08:20;;;;;;;6.88;5.07;;;28.60;39.10;;;;;;6271674;28;20246;-79
2023/06/09 11:11:50;;;;;;;10.47;5.33;;;28.70;39.00;;;;;;6280441;28;20246;-81
2023/06/09 11:14:56;;;;;;;12.30;5.40;;;28.70;38.70;;;;;;6284795;28;20290;-81
2023/06/09 11:18:16;;;;;;;4.73;4.43;;;28.70;38.30;;;;;;6289774;28;20252;-80
2023/06/09 11:21:21;;;;;;;5.87;4.87;;;28.90;38.30;;;;;;6279422;28;20257;-80
2023/06/09 11:24:24;;;;;;;5.15;4.30;;;29.10;38.70;;;;;;6283636;28;20375;-79
2023/06/09 11:27:28;;;;;;;6.38;5.18;;;29.30;38.40;;;;;;6273595;28;20238;-83
2023/06/09 11:30:32;;;;;;;5.57;5.22;;;29.50;38.20;;;;;;6280991;28;20272;-80
2023/06/09 11:33:50;;;;;;;5.32;5.03;;;29.40;37.80;;;;;;6284965;28;20388;-81
2023/06/09 11:36:53;;;;;;;7.35;5.40;;;29.50;38.50;;;;;;6265853;28;20230;-81
2023/06/09 11:39:57;;;;;;;6.78;5.20;;;29.50;37.80;;;;;;6278886;28;20244;-80
2023/06/09 11:43:03;;;;;;;5.82;5.43;;;29.50;37.80;;;;;;6285956;28;20256;-79
2023/06/09 11:46:07;;;;;;;6.20;5.65;;;29.40;38.60;;;;;;6278241;28;20250;-78
2023/06/09 11:49:10;;;;;;;5.70;5.25;;;29.40;38.00;;;;;;6288417;28;20243;-79
2023/06/09 11:52:15;;;;;;;8.18;6.00;;;29.40;38.10;;;;;;6284478;28;20238;-80
2023/06/09 11:55:18;;;;;;;6.28;5.88;;;29.40;38.00;;;;;;6278367;28;20315;-79
2023/06/09 11:58:22;;;;;;;5.15;4.95;;;29.50;38.40;;;;;;6274376;28;20256;-81
2023/06/09 12:01:31;;;;;;;5.13;4.93;;;29.50;38.20;;;;;;6273276;28;20871;-79
2023/06/09 12:04:39;;;;;;;5.45;4.80;;;29.70;37.70;;;;;;6272787;28;20234;-80
2023/06/09 12:07:43;;;;;;;6.05;5.45;;;29.70;37.90;;;;;;6277820;28;20233;-81
2023/06/09 12:10:47;;;;;;;5.47;5.00;;;29.90;37.50;;;;;;6283848;28;20257;-80
2023/06/09 12:13:52;;;;;;;5.93;5.00;;;30.00;38.00;;;;;;6269416;28;20245;-81
2023/06/09 12:16:55;;;;;;;5.50;5.00;;;30.10;37.70;;;;;;6272222;28;20236;-81
2023/06/09 12:20:19;;;;;;;6.53;5.35;;;30.30;37.40;;;;;;6279043;28;20317;-81
2023/06/09 12:23:28;;;;;;;5.05;4.75;;;30.20;37.20;;;;;;6270822;28;20820;-81
2023/06/09 12:26:39;;;;;;;5.35;4.85;;;30.20;37.80;;;;;;6272094;28;20834;-80
2023/06/09 12:29:43;;;;;;;5.25;4.95;;;30.20;36.90;;;;;;6278338;28;20237;-80
2023/06/09 12:32:46;;;;;;;5.72;5.30;;;30.10;37.00;;;;;;6270379;28;20257;-79
2023/06/09 12:35:51;;;;;;;5.82;5.40;;;30.10;37.50;;;;;;6278341;28;20689;-79
2023/06/09 12:38:55;;;;;;;5.38;5.00;;;30.10;36.90;;;;;;6270882;28;20634;-79
2023/06/09 12:41:58;;;;;;;5.97;5.45;;;30.00;36.60;;;;;;6278522;28;20241;-80
2023/06/09 12:45:03;;;;;;;6.22;5.47;;;30.00;37.10;;;;;;6282188;28;20241;-79
2023/06/09 12:48:07;;;;;;;6.22;5.13;;;30.00;36.80;;;;;;6276395;28;20234;-79
2023/06/09 12:51:10;;;;;;;5.95;5.45;;;30.00;36.60;;;;;;6274663;28;20225;-80
2023/06/09 12:54:14;;;;;;;5.47;5.15;;;30.00;36.70;;;;;;6279898;28;20833;-80
2023/06/09 12:57:17;;;;;;;5.68;5.28;;;29.80;37.40;;;;;;6269820;28;20718;-81
2023/06/09 13:00:22;;;;;;;5.45;5.05;;;29.90;37.30;;;;;;6268016;28;20613;-80
2023/06/09 13:03:25;;;;;;;5.80;5.40;;;30.00;37.30;;;;;;6282995;28;20244;-81
2023/06/09 13:06:29;;;;;;;5.38;5.00;;;30.10;36.90;;;;;;6271317;28;20380;-79
2023/06/09 13:09:32;;;;;;;5.38;5.07;;;30.30;36.70;;;;;;6271479;28;20321;-80
2023/06/09 13:12:35;;;;;;;5.47;5.10;;;30.10;37.00;;;;;;6266492;28;20245;-80
2023/06/09 13:15:40;;;;;;;5.25;4.95;;;30.10;36.30;;;;;;6273598;28;20450;-79
2023/06/09 13:18:44;;;;;;;5.97;5.55;;;30.20;36.70;;;;;;6272890;28;20271;-79
2023/06/09 13:21:48;;;;;;;5.75;5.35;;;30.30;36.60;;;;;;6280218;28;20246;-81
2023/06/09 13:24:51;;;;;;;6.13;5.82;;;30.30;36.70;;;;;;6269771;28;20307;-79
2023/06/09 13:27:54;;;;;;;6.05;5.55;;;30.30;36.80;;;;;;6273331;28;20230;-82
2023/06/09 13:30:58;;;;;;;6.07;5.40;;;30.50;36.50;;;;;;6265835;28;20784;-82
2023/06/09 13:34:02;;;;;;;5.57;5.18;;;30.10;35.80;;;;;;6266033;28;20230;-80
2023/06/09 13:37:05;;;;;;;5.55;5.30;;;30.00;36.50;;;;;;6261431;28;20274;-82
2023/06/09 13:40:09;;;;;;;6.20;5.90;;;30.00;36.80;;;;;;6270974;28;20260;-80
2023/06/09 13:43:14;;;;;;;5.80;5.50;;;30.10;36.70;;;;;;6270067;28;20330;-81
2023/06/09 13:46:19;;;;;;;5.63;5.00;;;30.30;36.70;;;;;;6269269;28;20236;-82
2023/06/09 13:49:23;;;;;;;5.50;5.07;;;30.50;36.70;;;;;;6284263;28;20240;-80
2023/06/09 13:52:26;;;;;;;6.20;5.65;;;30.50;35.80;;;;;;6268389;28;20242;-80
2023/06/09 13:55:29;;;;;;;5.90;5.45;;;30.50;36.20;;;;;;6267987;28;20311;-79
2023/06/09 13:58:32;;;;;;;6.00;5.60;;;30.30;35.90;;;;;;6282750;28;20245;-77
2023/06/09 14:01:42;;;;;;;6.28;5.70;;;30.30;36.20;;;;;;6276609;28;20258;-80
2023/06/09 14:04:46;;;;;;;6.03;5.63;;;30.30;36.70;;;;;;6258353;28;20234;-80
2023/06/09 14:07:49;;;;;;;5.55;5.20;;;30.30;36.40;;;;;;6271837;28;20241;-81
2023/06/09 14:10:52;;;;;;;5.85;5.35;;;30.40;36.60;;;;;;6269500;28;20303;-82
2023/06/09 14:13:55;;;;;;;6.28;5.50;;;30.50;36.10;;;;;;6275666;28;20241;-79
2023/06/09 14:17:00;;;;;;;5.35;5.05;;;30.50;36.40;;;;;;6274557;28;20241;-79
2023/06/09 14:20:04;;;;;;;5.90;5.63;;;30.50;36.60;;;;;;6264327;28;20941;-80
2023/06/09 14:23:08;;;;;;;5.70;5.38;;;30.60;36.00;;;;;;6270100;28;20335;-78
2023/06/09 14:26:13;;;;;;;5.20;4.82;;;30.50;36.00;;;;;;6273948;28;20229;-82
2023/06/09 14:29:17;;;;;;;10.45;5.38;;;30.50;36.50;;;;;;6263500;28;20254;-78
2023/06/09 14:32:21;;;;;;;6.20;5.65;;;30.30;36.20;;;;;;6296329;28;20236;-81
2023/06/09 14:35:27;;;;;;;6.35;5.45;;;30.30;36.40;;;;;;6279425;28;20298;-78
2023/06/09 14:38:30;;;;;;;6.28;5.93;;;30.10;36.60;;;;;;6265029;28;20234;-79
2023/06/09 14:41:33;;;;;;;6.53;5.93;;;30.10;36.70;;;;;;6279541;28;20822;-80
2023/06/09 14:44:36;;;;;;;6.50;5.60;;;30.30;36.60;;;;;;6285691;28;20641;-82
2023/06/09 14:47:41;;;;;;;6.15;5.47;;;30.30;36.30;;;;;;6275605;28;20233;-80
2023/06/09 14:50:46;;;;;;;6.47;6.13;;;30.30;36.30;;;;;;6285760;28;20238;-79
2023/06/09 14:53:49;;;;;;;5.50;5.28;;;30.30;36.20;;;;;;6291744;28;20248;-81
2023/06/09 14:56:53;;;;;;;5.47;5.20;;;30.40;36.00;;;;;;6283418;28;20670;-79
2023/06/09 14:59:56;;;;;;;5.47;5.15;;;30.30;36.40;;;;;;6280316;28;20244;-80
2023/06/09 15:03:02;;;;;;;5.75;5.47;;;30.30;36.20;;;;;;6265783;28;20364;-80
2023/06/09 15:06:05;;;;;;;5.38;5.05;;;30.10;36.00;;;;;;6267333;28;20263;-80
2023/06/09 15:09:11;;;;;;;6.10;5.70;;;30.00;36.60;;;;;;6273520;28;20739;-81
2023/06/09 15:12:16;;;;;;;6.00;5.47;;;30.00;36.60;;;;;;6273561;28;20843;-81
2023/06/09 15:15:22;;;;;;;5.07;4.78;;;30.10;36.50;;;;;;6275423;28;20799;-79
2023/06/09 15:18:26;;;;;;;7.28;5.55;;;30.00;36.50;;;;;;6271332;28;20244;-83
2023/06/09 15:21:29;;;;;;;5.95;5.55;;;30.00;36.60;;;;;;6293342;28;20241;-82
2023/06/09 15:24:33;;;;;;;5.63;5.35;;;30.10;36.60;;;;;;6284596;28;20287;-81
2023/06/09 15:27:36;;;;;;;6.43;6.03;;;30.10;36.50;;;;;;6283636;28;20696;-82
2023/06/09 15:30:42;;;;;;;5.63;5.38;;;30.10;36.90;;;;;;6294282;28;20302;-82
2023/06/09 15:33:47;;;;;;;6.10;5.78;;;30.20;36.70;;;;;;6292268;28;20905;-83
2023/06/09 15:36:50;;;;;;;5.57;5.38;;;30.30;36.20;;;;;;6273099;28;20245;-82
2023/06/09 15:39:53;;;;;;;5.38;5.05;;;30.30;36.60;;;;;;6282401;28;20399;-82
2023/06/09 15:42:56;;;;;;;6.15;5.78;;;30.30;36.40;;;;;;6297725;28;20241;-83
2023/06/09 15:46:02;;;;;;;6.55;5.13;;;30.10;36.40;;;;;;6283769;28;20805;-82
2023/06/09 15:49:08;;;;;;;5.85;5.45;;;30.10;36.60;;;;;;6284633;28;20232;-83
2023/06/09 15:52:11;;;;;;;5.43;5.03;;;30.00;36.70;;;;;;6282089;28;20243;-83
2023/06/09 15:55:29;;;;;;;5.68;5.28;;;30.00;36.70;;;;;;6283746;28;20237;-81
2023/06/09 15:58:33;;;;;;;5.80;5.53;;;29.80;36.80;;;;;;6278140;28;20240;-84
2023/06/09 16:01:36;;;;;;;5.55;5.15;;;29.80;36.90;;;;;;6283317;28;20349;-84